Centre Island, New York
Current Conditions -  °F | °C
As of 4:53 AM on Monday 26 Jan 2015 (Local Time) from KFRG Reporting Station
Overcast Overcast  
Wind Chill: 15°   Ceiling: 3700
Heat Index: 25°   Visibility: 10mi
Dew Point: 11°   Wind: 10mph
Humidity: 55%   Direction: 50°NE
Pressure: 30.02"   Gusts: NA
Location:  40.8615°N, 73.5265°W
Report Text: KFRG 260953Z AUTO 05009KT 10SM OVC037 M04/M12 A3002 RMK AO2 SLP167 T10391117
Loading
Personal Weather Stations






























Interactive Weather Map New forecast layout! Learn more

10-Day Weather Forecast

Advertisements
Track Severe Weather on mobile